Aviation Digital Data Service (ADDS)

Output produced by METARs form (0326 UTC 19 August 2019)
found at http://www.aviationweather.gov/metar/data/
 
METAR text: HRYR 190000Z 30003KT 9999 SCT026 SCT100 21/12 Q1019 NOSIG
Conditions at: HRYR (KIGALI , RW) observed 0000 UTC 19 August 2019
Temperature: 21.0°C (70°F)
Dewpoint: 12.0°C (54°F) [RH = 56%]
Pressure (altimeter): 30.09 inches Hg (1019.0 mb)
Winds: from the WNW (300 degrees) at 3 MPH (3 knots; 1.5 m/s)
Visibility: 6 or more miles (10+ km)
Ceiling: at least 12,000 feet AGL
Clouds: scattered clouds at 2600 feet AGL
scattered clouds at 10000 feet AGL
Weather: no significant weather observed at this time

METAR text: HRYR 182300Z VRB01KT 9999 FEW026 SCT100 21/11 Q1020 NOSIG
Conditions at: HRYR (KIGALI , RW) observed 2300 UTC 18 August 2019
Temperature: 21.0°C (70°F)
Dewpoint: 11.0°C (52°F) [RH = 53%]
Pressure (altimeter): 30.12 inches Hg (1020.0 mb)
Winds: variable direction winds at 1 MPH (1 knots; 0.5 m/s)
Visibility: 6 or more miles (10+ km)
Ceiling: at least 12,000 feet AGL
Clouds: few clouds at 2600 feet AGL
scattered clouds at 10000 feet AGL
Weather: no significant weather observed at this time

METAR text: HRYR 182100Z VRB02KT 9999 SCT026 SCT100 23/10 Q1020 NOSIG
Conditions at: HRYR (KIGALI , RW) observed 2100 UTC 18 August 2019
Temperature: 23.0°C (73°F)
Dewpoint: 10.0°C (50°F) [RH = 44%]
Pressure (altimeter): 30.12 inches Hg (1020.0 mb)
Winds: variable direction winds at 2 MPH (2 knots; 1.0 m/s)
Visibility: 6 or more miles (10+ km)
Ceiling: at least 12,000 feet AGL
Clouds: scattered clouds at 2600 feet AGL
scattered clouds at 10000 feet AGL
Weather: no significant weather observed at this time

METAR text: HRYR 182000Z VRB02KT 9999 SCT026 SCT100 24/10 Q1021 NOSIG
Conditions at: HRYR (KIGALI , RW) observed 2000 UTC 18 August 2019
Temperature: 24.0°C (75°F)
Dewpoint: 10.0°C (50°F) [RH = 41%]
Pressure (altimeter): 30.15 inches Hg (1021.0 mb)
Winds: variable direction winds at 2 MPH (2 knots; 1.0 m/s)
Visibility: 6 or more miles (10+ km)
Ceiling: at least 12,000 feet AGL
Clouds: scattered clouds at 2600 feet AGL
scattered clouds at 10000 feet AGL
Weather: no significant weather observed at this time

METAR text: HRYR 181900Z 10003KT 9999 FEW026 SCT100 24/10 Q1020 NOSIG
Conditions at: HRYR (KIGALI , RW) observed 1900 UTC 18 August 2019
Temperature: 24.0°C (75°F)
Dewpoint: 10.0°C (50°F) [RH = 41%]
Pressure (altimeter): 30.12 inches Hg (1020.0 mb)
Winds: from the E (100 degrees) at 3 MPH (3 knots; 1.5 m/s)
Visibility: 6 or more miles (10+ km)
Ceiling: at least 12,000 feet AGL
Clouds: few clouds at 2600 feet AGL
scattered clouds at 10000 feet AGL
Weather: no significant weather observed at this time

METAR text: HRYR 181800Z VRB02KT 9999 SCT100 24/10 Q1019 NOSIG
Conditions at: HRYR (KIGALI , RW) observed 1800 UTC 18 August 2019
Temperature: 24.0°C (75°F)
Dewpoint: 10.0°C (50°F) [RH = 41%]
Pressure (altimeter): 30.09 inches Hg (1019.0 mb)
Winds: variable direction winds at 2 MPH (2 knots; 1.0 m/s)
Visibility: 6 or more miles (10+ km)
Ceiling: at least 12,000 feet AGL
Clouds: scattered clouds at 10000 feet AGL
Weather: no significant weather observed at this time

METAR text: HRYR 181600Z 10006KT 9999 SCT026 25/10 Q1018 NOSIG
Conditions at: HRYR (KIGALI , RW) observed 1600 UTC 18 August 2019
Temperature: 25.0°C (77°F)
Dewpoint: 10.0°C (50°F) [RH = 39%]
Pressure (altimeter): 30.06 inches Hg (1018.0 mb)
Winds: from the E (100 degrees) at 7 MPH (6 knots; 3.1 m/s)
Visibility: 6 or more miles (10+ km)
Ceiling: at least 12,000 feet AGL
Clouds: scattered clouds at 2600 feet AGL
Weather: no significant weather observed at this time

METAR text: HRYR 181530Z 10007KT 9999 SCT025 25/10 Q1017 NOSIG
Conditions at: HRYR (KIGALI , RW) observed 1530 UTC 18 August 2019
Temperature: 25.0°C (77°F)
Dewpoint: 10.0°C (50°F) [RH = 39%]
Pressure (altimeter): 30.03 inches Hg (1017.0 mb)
Winds: from the E (100 degrees) at 8 MPH (7 knots; 3.6 m/s)
Visibility: 6 or more miles (10+ km)
Ceiling: at least 12,000 feet AGL
Clouds: scattered clouds at 2500 feet AGL
Weather: no significant weather observed at this time

METAR text: HRYR 181500Z 09008KT 9999 SCT025 27/10 Q1017 NOSIG
Conditions at: HRYR (KIGALI , RW) observed 1500 UTC 18 August 2019
Temperature: 27.0°C (81°F)
Dewpoint: 10.0°C (50°F) [RH = 34%]
Pressure (altimeter): 30.03 inches Hg (1017.0 mb)
Winds: from the E (90 degrees) at 9 MPH (8 knots; 4.1 m/s)
Visibility: 6 or more miles (10+ km)
Ceiling: at least 12,000 feet AGL
Clouds: scattered clouds at 2500 feet AGL
Weather: no significant weather observed at this time

METAR text: HRYR 181430Z 10007KT 9999 SCT025 BKN100 27/10 Q1017 NOSIG
Conditions at: HRYR (KIGALI , RW) observed 1430 UTC 18 August 2019
Temperature: 27.0°C (81°F)
Dewpoint: 10.0°C (50°F) [RH = 34%]
Pressure (altimeter): 30.03 inches Hg (1017.0 mb)
Winds: from the E (100 degrees) at 8 MPH (7 knots; 3.6 m/s)
Visibility: 6 or more miles (10+ km)
Ceiling: 10000 feet AGL
Clouds: scattered clouds at 2500 feet AGL
broken clouds at 10000 feet AGL
Weather: no significant weather observed at this time

METAR text: HRYR 181400Z 11006KT 9999 BKN025 SCT100 28/10 Q1017 NOSIG
Conditions at: HRYR (KIGALI , RW) observed 1400 UTC 18 August 2019
Temperature: 28.0°C (82°F)
Dewpoint: 10.0°C (50°F) [RH = 32%]
Pressure (altimeter): 30.03 inches Hg (1017.0 mb)
Winds: from the ESE (110 degrees) at 7 MPH (6 knots; 3.1 m/s)
Visibility: 6 or more miles (10+ km)
Ceiling: 2500 feet AGL
Clouds: broken clouds at 2500 feet AGL
scattered clouds at 10000 feet AGL
Weather: no significant weather observed at this time

METAR text: HRYR 181330Z 15007KT 9999 BKN025 SCT100 27/10 Q1017 NOSIG
Conditions at: HRYR (KIGALI , RW) observed 1330 UTC 18 August 2019
Temperature: 27.0°C (81°F)
Dewpoint: 10.0°C (50°F) [RH = 34%]
Pressure (altimeter): 30.03 inches Hg (1017.0 mb)
Winds: from the SSE (150 degrees) at 8 MPH (7 knots; 3.6 m/s)
Visibility: 6 or more miles (10+ km)
Ceiling: 2500 feet AGL
Clouds: broken clouds at 2500 feet AGL
scattered clouds at 10000 feet AGL
Weather: no significant weather observed at this time

METAR text: HRYR 181300Z VRB06KT 9999 BKN025 29/10 Q1018 NOSIG
Conditions at: HRYR (KIGALI , RW) observed 1300 UTC 18 August 2019
Temperature: 29.0°C (84°F)
Dewpoint: 10.0°C (50°F) [RH = 31%]
Pressure (altimeter): 30.06 inches Hg (1018.0 mb)
Winds: variable direction winds at 7 MPH (6 knots; 3.1 m/s)
Visibility: 6 or more miles (10+ km)
Ceiling: 2500 feet AGL
Clouds: broken clouds at 2500 feet AGL
Weather: no significant weather observed at this time

METAR text: HRYR 181230Z 10008KT 9999 BKN024 28/10 Q1018 NOSIG
Conditions at: HRYR (KIGALI , RW) observed 1230 UTC 18 August 2019
Temperature: 28.0°C (82°F)
Dewpoint: 10.0°C (50°F) [RH = 32%]
Pressure (altimeter): 30.06 inches Hg (1018.0 mb)
Winds: from the E (100 degrees) at 9 MPH (8 knots; 4.1 m/s)
Visibility: 6 or more miles (10+ km)
Ceiling: 2400 feet AGL
Clouds: broken clouds at 2400 feet AGL
Weather: no significant weather observed at this time

METAR text: HRYR 181200Z 13007KT 9999 BKN024 SCT100 28/09 Q1019 NOSIG
Conditions at: HRYR (KIGALI , RW) observed 1200 UTC 18 August 2019
Temperature: 28.0°C (82°F)
Dewpoint: 9.0°C (48°F) [RH = 30%]
Pressure (altimeter): 30.09 inches Hg (1019.0 mb)
Winds: from the SE (130 degrees) at 8 MPH (7 knots; 3.6 m/s)
Visibility: 6 or more miles (10+ km)
Ceiling: 2400 feet AGL
Clouds: broken clouds at 2400 feet AGL
scattered clouds at 10000 feet AGL
Weather: no significant weather observed at this time

METAR text: HRYR 181100Z 17008KT 9999 SCT025 SCT100 27/10 Q1020 NOSIG
Conditions at: HRYR (KIGALI , RW) observed 1100 UTC 18 August 2019
Temperature: 27.0°C (81°F)
Dewpoint: 10.0°C (50°F) [RH = 34%]
Pressure (altimeter): 30.12 inches Hg (1020.0 mb)
Winds: from the S (170 degrees) at 9 MPH (8 knots; 4.1 m/s)
Visibility: 6 or more miles (10+ km)
Ceiling: at least 12,000 feet AGL
Clouds: scattered clouds at 2500 feet AGL
scattered clouds at 10000 feet AGL
Weather: no significant weather observed at this time

METAR text: HRYR 181000Z 16011KT 9999 SCT025 27/10 Q1021 NOSIG
Conditions at: HRYR (KIGALI , RW) observed 1000 UTC 18 August 2019
Temperature: 27.0°C (81°F)
Dewpoint: 10.0°C (50°F) [RH = 34%]
Pressure (altimeter): 30.15 inches Hg (1021.0 mb)
Winds: from the SSE (160 degrees) at 13 MPH (11 knots; 5.7 m/s)
Visibility: 6 or more miles (10+ km)
Ceiling: at least 12,000 feet AGL
Clouds: scattered clouds at 2500 feet AGL
Weather: no significant weather observed at this time

METAR text: HRYR 180900Z 15008KT 9999 SCT025 25/10 Q1022 NOSIG
Conditions at: HRYR (KIGALI , RW) observed 0900 UTC 18 August 2019
Temperature: 25.0°C (77°F)
Dewpoint: 10.0°C (50°F) [RH = 39%]
Pressure (altimeter): 30.18 inches Hg (1022.0 mb)
Winds: from the SSE (150 degrees) at 9 MPH (8 knots; 4.1 m/s)
Visibility: 6 or more miles (10+ km)
Ceiling: at least 12,000 feet AGL
Clouds: scattered clouds at 2500 feet AGL
Weather: no significant weather observed at this time

METAR text: HRYR 180800Z 16016KT 9999 SCT025 24/10 Q1023 NOSIG
Conditions at: HRYR (KIGALI , RW) observed 0800 UTC 18 August 2019
Temperature: 24.0°C (75°F)
Dewpoint: 10.0°C (50°F) [RH = 41%]
Pressure (altimeter): 30.21 inches Hg (1023.0 mb)
Winds: from the SSE (160 degrees) at 18 MPH (16 knots; 8.2 m/s)
Visibility: 6 or more miles (10+ km)
Ceiling: at least 12,000 feet AGL
Clouds: scattered clouds at 2500 feet AGL
Weather: no significant weather observed at this time

METAR text: HRYR 180700Z VRB02KT 9999 SCT025 SCT100 23/12 Q1022 NOSIG
Conditions at: HRYR (KIGALI , RW) observed 0700 UTC 18 August 2019
Temperature: 23.0°C (73°F)
Dewpoint: 12.0°C (54°F) [RH = 50%]
Pressure (altimeter): 30.18 inches Hg (1022.0 mb)
Winds: variable direction winds at 2 MPH (2 knots; 1.0 m/s)
Visibility: 6 or more miles (10+ km)
Ceiling: at least 12,000 feet AGL
Clouds: scattered clouds at 2500 feet AGL
scattered clouds at 10000 feet AGL
Weather: no significant weather observed at this time

METAR text: HRYR 180630Z 19003KT 9000 SCT025 SCT100 21/11 Q1022 NOSIG
Conditions at: HRYR (KIGALI , RW) observed 0630 UTC 18 August 2019
Temperature: 21.0°C (70°F)
Dewpoint: 11.0°C (52°F) [RH = 53%]
Pressure (altimeter): 30.18 inches Hg (1022.0 mb)
Winds: from the S (190 degrees) at 3 MPH (3 knots; 1.5 m/s)
Visibility: 6 miles ( 9 km)
Ceiling: at least 12,000 feet AGL
Clouds: scattered clouds at 2500 feet AGL
scattered clouds at 10000 feet AGL
Weather: no significant weather observed at this time

METAR text: HRYR 180600Z 00000KT 9000 BKN025 SCT100 20/12 Q1022 NOSIG
Conditions at: HRYR (KIGALI , RW) observed 0600 UTC 18 August 2019
Temperature: 20.0°C (68°F)
Dewpoint: 12.0°C (54°F) [RH = 60%]
Pressure (altimeter): 30.18 inches Hg (1022.0 mb)
Winds: calm
Visibility: 6 miles ( 9 km)
Ceiling: 2500 feet AGL
Clouds: broken clouds at 2500 feet AGL
scattered clouds at 10000 feet AGL
Weather: no significant weather observed at this time

METAR text: HRYR 180500Z 30003KT 9999 BKN025 18/12 Q1021 NOSIG
Conditions at: HRYR (KIGALI , RW) observed 0500 UTC 18 August 2019
Temperature: 18.0°C (64°F)
Dewpoint: 12.0°C (54°F) [RH = 68%]
Pressure (altimeter): 30.15 inches Hg (1021.0 mb)
Winds: from the WNW (300 degrees) at 3 MPH (3 knots; 1.5 m/s)
Visibility: 6 or more miles (10+ km)
Ceiling: 2500 feet AGL
Clouds: broken clouds at 2500 feet AGL
Weather: no significant weather observed at this time

METAR text: HRYR 180400Z 25003KT 9999 SCT023 SCT100 17/11 Q1020 NOSIG
Conditions at: HRYR (KIGALI , RW) observed 0400 UTC 18 August 2019
Temperature: 17.0°C (63°F)
Dewpoint: 11.0°C (52°F) [RH = 68%]
Pressure (altimeter): 30.12 inches Hg (1020.0 mb)
Winds: from the WSW (250 degrees) at 3 MPH (3 knots; 1.5 m/s)
Visibility: 6 or more miles (10+ km)
Ceiling: at least 12,000 feet AGL
Clouds: scattered clouds at 2300 feet AGL
scattered clouds at 10000 feet AGL
Weather: no significant weather observed at this time

Forecast for: HRYR (KIGALI , RW)
Text: TAF HRYR 182300Z 1900/2006 00000KT 9999 SCT026 SCT100
Forecast period: 0000 to 0600 UTC 19 August 2019
Forecast type: FROM: standard forecast or significant change
Winds: calm
Visibility: 6 or more miles 10+ km)
Ceiling: at least 12,000 feet AGL
Clouds: scattered clouds at 2600 feet AGL
scattered clouds at 10000 feet AGL
Weather: no significant weather forecast for this period
Text: BECMG 1906/1909 16008KT
Forecast period: 0600 to 2000 UTC 19 August 2019
Forecast type: BECOMING: Conditions expected to become as follows by 0900 UTC 19 August 2019
Winds: from the SSE (160 degrees) at 9 MPH (8 knots; 4.1 m/s)
Visibility: 6 or more miles 10+ km)
Ceiling: at least 12,000 feet AGL
Clouds: scattered clouds at 2600 feet AGL
scattered clouds at 10000 feet AGL
Weather: no significant weather forecast for this period
Text: TEMPO 1913/1916 26015KT FEW020CB SCT025
Forecast period: 1300 to 1600 UTC 19 August 2019
Forecast type: TEMPORARY: The following changes expected for less than half the time period
Winds: from the W (260 degrees) at 17 MPH (15 knots; 7.7 m/s)
Visibility: missing
Ceiling: at least 12,000 feet AGL
Clouds: few clouds at 2000 feet AGL
scattered clouds at 2500 feet AGL
Weather: no significant weather forecast for this period
Text: FM192000 00000KT CAVOK
Forecast period: 2000 UTC 19 August 2019 to 0300 UTC 20 August 2019
Forecast type: FROM: standard forecast or significant change
Winds: calm
Visibility: 6 or more miles 10+ km)
Ceiling: unknown
Clouds: missing
Weather: NSW  (no significant weather)
Text: BECMG 2003/2006 28005KT FEW025
Forecast period: 0300 to 0600 UTC 20 August 2019
Forecast type: BECOMING: Conditions expected to become as follows by 0600 UTC 20 August 2019
Winds: from the W (280 degrees) at 6 MPH (5 knots; 2.6 m/s)
Visibility: 6 or more miles 10+ km)
Ceiling: at least 12,000 feet AGL
Clouds: few clouds at 2500 feet AGL
Weather: NSW  (no significant weather)